Time;durP1;ratioP1;P1;durP2;ratioP2;P2;SDS_P1;SDS_P2;PMS_P1;PMS_P2;Temp;Humidity;BMP_temperature;BMP_pressure;BME280_temperature;BME280_humidity;BME280_pressure;Samples;Min_cycle;Max_cycle;Signal;HPM_P1;HPM_P2
2022/08/29 00:01:10;;;;;;;8.30;7.60;;;20.00;99.90;;;;;;5082944;28;20187;-81
2022/08/29 00:03:37;;;;;;;11.27;7.70;;;20.00;99.90;;;;;;5079698;28;20845;-80
2022/08/29 00:06:03;;;;;;;10.80;7.73;;;19.90;99.90;;;;;;5074062;28;20179;-81
2022/08/29 00:08:33;;;;;;;8.50;7.50;;;19.90;99.90;;;;;;5074083;28;20183;-79
2022/08/29 00:10:59;;;;;;;8.40;7.70;;;19.80;99.90;;;;;;5072844;28;20183;-81
2022/08/29 00:13:26;;;;;;;8.00;7.20;;;19.90;99.90;;;;;;5072649;28;20185;-80
2022/08/29 00:15:52;;;;;;;9.40;8.50;;;19.90;99.90;;;;;;5072342;28;20171;-80
2022/08/29 00:18:19;;;;;;;8.30;7.50;;;19.90;99.90;;;;;;5072212;28;20175;-79
2022/08/29 00:20:46;;;;;;;7.70;7.10;;;19.90;99.90;;;;;;5072169;28;20186;-82
2022/08/29 00:23:12;;;;;;;9.03;8.17;;;19.80;99.90;;;;;;5072193;28;20634;-80
2022/08/29 00:25:38;;;;;;;9.70;7.70;;;19.80;99.90;;;;;;5072053;28;20224;-80
2022/08/29 00:28:05;;;;;;;8.93;8.03;;;19.90;99.90;;;;;;5070612;28;20273;-80
2022/08/29 00:30:32;;;;;;;8.83;8.10;;;19.90;99.90;;;;;;5070525;28;20180;-80
2022/08/29 00:32:58;;;;;;;9.27;8.57;;;19.90;99.90;;;;;;5069955;28;20187;-80
2022/08/29 00:35:31;;;;;;;9.43;8.53;;;19.90;99.90;;;;;;5071366;28;20558;-80
2022/08/29 00:37:57;;;;;;;8.97;8.13;;;19.90;99.90;;;;;;5071980;28;20175;-80
2022/08/29 00:40:29;;;;;;;9.17;8.37;;;19.90;99.90;;;;;;5071903;28;20876;-80
2022/08/29 00:42:55;;;;;;;10.07;8.07;;;19.90;99.90;;;;;;5071687;28;20688;-81
2022/08/29 00:45:22;;;;;;;8.90;8.03;;;19.90;99.90;;;;;;5071942;28;20175;-80
2022/08/29 00:47:56;;;;;;;8.67;7.83;;;20.00;99.90;;;;;;5070584;28;20187;-80
2022/08/29 00:50:27;;;;;;;10.87;8.83;;;20.00;99.90;;;;;;5070668;28;20155;-81
2022/08/29 00:52:56;;;;;;;9.50;8.67;;;20.00;99.90;;;;;;5072181;28;20627;-80
2022/08/29 00:55:26;;;;;;;9.40;8.50;;;20.00;99.90;;;;;;5070064;28;20233;-81
2022/08/29 00:57:58;;;;;;;9.87;8.87;;;20.00;99.90;;;;;;5071487;28;20215;-80
2022/08/29 01:00:26;;;;;;;10.13;9.13;;;20.00;99.90;;;;;;5070255;28;20183;-80
2022/08/29 01:02:53;;;;;;;9.53;8.70;;;20.00;99.90;;;;;;5069983;28;20615;-81
2022/08/29 01:05:20;;;;;;;12.53;11.00;;;20.00;99.90;;;;;;5071159;28;20167;-79
2022/08/29 01:07:47;;;;;;;11.77;10.60;;;20.00;99.90;;;;;;5071664;28;20637;-81
2022/08/29 01:12:14;;;;;;;11.37;10.37;;;19.90;99.90;;;;;;5071159;28;20171;-80
2022/08/29 01:13:02;;;;;;;11.93;10.83;;;19.90;99.90;;;;;;5071095;28;20221;-80
2022/08/29 01:15:29;;;;;;;12.93;11.17;;;20.00;99.90;;;;;;5070968;28;20178;-80
2022/08/29 01:17:57;;;;;;;14.07;10.97;;;20.00;99.90;;;;;;5071115;28;20526;-82
2022/08/29 01:20:49;;;;;;;14.57;12.90;;;20.00;99.90;;;;;;5069884;28;20171;-82
2022/08/29 01:23:46;;;;;;;13.00;11.57;;;20.00;99.90;;;;;;5071148;28;20229;-82
2022/08/29 01:26:12;;;;;;;14.07;12.50;;;20.00;99.90;;;;;;5070941;28;20736;-80
2022/08/29 01:28:47;;;;;;;14.10;12.07;;;20.00;99.90;;;;;;5070830;28;20192;-81
2022/08/29 01:31:16;;;;;;;14.70;13.03;;;20.10;99.90;;;;;;5071779;28;20162;-82
2022/08/29 01:33:46;;;;;;;14.47;12.97;;;20.00;99.90;;;;;;5072341;28;20225;-80
2022/08/29 01:36:16;;;;;;;15.17;12.07;;;20.00;99.90;;;;;;5072330;28;20217;-80
2022/08/29 01:38:42;;;;;;;14.53;13.00;;;20.00;99.90;;;;;;5079892;28;20164;-79
2022/08/29 01:41:09;;;;;;;13.60;12.30;;;19.90;99.90;;;;;;5087731;28;20203;-81
2022/08/29 01:43:47;;;;;;;15.43;13.17;;;19.80;99.90;;;;;;5073529;28;20175;-82
2022/08/29 01:46:18;;;;;;;13.17;11.97;;;19.90;99.90;;;;;;5071303;28;20198;-81
2022/08/29 01:48:45;;;;;;;14.40;12.80;;;19.80;99.90;;;;;;5070964;28;20618;-81
2022/08/29 01:51:12;;;;;;;13.63;11.97;;;19.90;99.90;;;;;;5070747;28;20683;-81
2022/08/29 01:53:38;;;;;;;13.60;12.20;;;19.90;99.90;;;;;;5071043;28;20191;-81
2022/08/29 01:56:27;;;;;;;12.70;11.60;;;19.90;99.90;;;;;;5070422;28;20642;-81
2022/08/29 01:58:54;;;;;;;12.77;11.57;;;19.90;99.90;;;;;;5070051;28;20231;-81
2022/08/29 02:01:28;;;;;;;12.50;11.40;;;19.90;99.90;;;;;;5070123;28;20199;-81
2022/08/29 02:03:54;;;;;;;14.50;11.97;;;19.90;99.90;;;;;;5070335;28;20171;-83
2022/08/29 02:06:20;;;;;;;12.03;10.93;;;19.90;99.90;;;;;;5070277;28;20186;-82
2022/08/29 02:08:46;;;;;;;13.47;11.80;;;19.90;99.90;;;;;;5070275;28;20183;-82
2022/08/29 02:11:16;;;;;;;12.87;11.50;;;19.90;99.90;;;;;;5070191;28;20201;-83
2022/08/29 02:13:49;;;;;;;12.27;11.07;;;19.90;99.90;;;;;;5070058;28;20163;-82
2022/08/29 02:16:16;;;;;;;12.80;11.47;;;19.80;99.90;;;;;;5070145;28;20232;-81
2022/08/29 02:18:42;;;;;;;12.47;11.03;;;19.80;99.90;;;;;;5069896;28;20262;-81
2022/08/29 02:21:10;;;;;;;13.23;10.57;;;19.80;99.90;;;;;;5070074;28;20206;-80
2022/08/29 02:23:37;;;;;;;12.63;11.17;;;19.80;99.90;;;;;;5069985;28;20582;-81
2022/08/29 02:26:03;;;;;;;12.07;10.97;;;19.80;99.90;;;;;;5069820;28;20243;-81
2022/08/29 02:28:30;;;;;;;11.93;10.53;;;19.80;99.90;;;;;;5070058;28;20175;-82
2022/08/29 02:30:56;;;;;;;11.57;10.47;;;19.70;99.90;;;;;;5070023;28;20167;-81
2022/08/29 02:33:23;;;;;;;14.73;10.93;;;19.70;99.90;;;;;;5069997;28;20195;-82
2022/08/29 02:35:49;;;;;;;12.30;11.10;;;19.70;99.90;;;;;;5068441;28;20260;-81
2022/08/29 02:38:16;;;;;;;14.43;11.80;;;19.60;99.90;;;;;;5069867;28;20172;-83
2022/08/29 02:40:43;;;;;;;12.80;11.60;;;19.70;99.90;;;;;;5069706;28;20199;-81
2022/08/29 02:43:09;;;;;;;13.63;11.33;;;19.80;99.90;;;;;;5069854;28;20291;-80
2022/08/29 02:45:37;;;;;;;13.93;12.50;;;19.80;99.90;;;;;;5069668;28;20171;-80
2022/08/29 02:48:03;;;;;;;13.33;11.97;;;19.80;99.90;;;;;;5068152;28;20197;-80
2022/08/29 02:50:29;;;;;;;12.10;10.93;;;19.80;99.90;;;;;;5069748;28;20709;-80
2022/08/29 02:52:55;;;;;;;12.60;11.40;;;19.80;99.90;;;;;;5069727;28;20266;-81
2022/08/29 02:55:23;;;;;;;12.93;11.43;;;19.80;99.90;;;;;;5069595;28;20216;-80
2022/08/29 02:57:49;;;;;;;13.40;12.10;;;19.80;99.90;;;;;;5071805;28;20238;-80
2022/08/29 03:00:22;;;;;;;13.20;11.90;;;19.80;99.90;;;;;;5072296;28;20232;-80
2022/08/29 03:02:48;;;;;;;13.07;11.77;;;19.80;99.90;;;;;;5073792;28;20199;-80
2022/08/29 03:05:15;;;;;;;13.40;11.97;;;19.90;99.90;;;;;;5073613;28;20191;-80
2022/08/29 03:07:41;;;;;;;12.73;11.57;;;19.90;99.90;;;;;;5074027;28;20185;-80
2022/08/29 03:10:07;;;;;;;12.13;10.97;;;19.90;99.90;;;;;;5074812;28;20164;-80
2022/08/29 03:12:37;;;;;;;13.10;11.37;;;19.80;99.90;;;;;;5074667;28;20163;-80
2022/08/29 03:15:07;;;;;;;14.07;12.67;;;19.80;99.90;;;;;;5073418;28;20175;-81
2022/08/29 03:17:33;;;;;;;12.07;10.87;;;19.70;99.90;;;;;;5082599;28;20163;-80
2022/08/29 03:20:02;;;;;;;8.30;7.50;;;19.70;99.90;;;;;;5089017;28;20557;-81
2022/08/29 03:22:28;;;;;;;8.27;7.47;;;19.80;99.90;;;;;;5075612;28;20203;-81
2022/08/29 03:24:54;;;;;;;8.40;7.60;;;19.70;99.90;;;;;;5073911;28;20178;-81
2022/08/29 03:27:21;;;;;;;8.60;7.90;;;19.70;99.90;;;;;;5073493;28;20259;-81
2022/08/29 03:29:47;;;;;;;7.27;6.67;;;19.70;99.90;;;;;;5073281;28;20167;-81
2022/08/29 03:32:13;;;;;;;4.73;4.43;;;19.60;99.90;;;;;;5073138;28;20178;-82
2022/08/29 03:34:39;;;;;;;7.17;4.90;;;19.70;99.90;;;;;;5073120;28;20969;-81
2022/08/29 03:37:05;;;;;;;4.27;4.00;;;19.60;99.90;;;;;;5073014;28;20179;-80
2022/08/29 03:39:34;;;;;;;3.90;3.70;;;19.60;99.90;;;;;;5072884;28;20586;-82
2022/08/29 03:42:00;;;;;;;4.57;4.17;;;19.50;99.90;;;;;;5071583;28;20211;-81
2022/08/29 03:44:26;;;;;;;4.27;3.87;;;19.50;99.90;;;;;;5072980;28;20169;-81
2022/08/29 03:46:53;;;;;;;3.90;3.70;;;19.50;99.90;;;;;;5072880;28;20214;-82
2022/08/29 03:49:19;;;;;;;4.57;4.17;;;19.50;99.90;;;;;;5071376;28;20182;-81
2022/08/29 03:51:44;;;;;;;4.27;3.73;;;19.50;99.90;;;;;;5071377;28;20550;-81
2022/08/29 03:54:10;;;;;;;5.03;4.40;;;19.40;99.90;;;;;;5072705;28;20179;-81
2022/08/29 03:56:36;;;;;;;4.83;4.00;;;19.40;99.90;;;;;;5072727;28;20207;-81
2022/08/29 03:59:05;;;;;;;4.27;3.97;;;19.50;99.90;;;;;;5071057;28;20234;-82
2022/08/29 04:01:31;;;;;;;4.27;3.87;;;19.50;99.90;;;;;;5072438;28;20210;-81
2022/08/29 04:03:58;;;;;;;4.20;3.80;;;19.40;99.90;;;;;;5072612;28;20175;-81
2022/08/29 04:06:27;;;;;;;5.20;3.90;;;19.30;99.90;;;;;;5072393;28;20536;-82
2022/08/29 04:08:53;;;;;;;4.17;3.80;;;19.30;99.90;;;;;;5072254;28;20266;-83
2022/08/29 04:11:22;;;;;;;4.23;3.90;;;19.40;99.90;;;;;;5071277;28;20175;-82
2022/08/29 04:13:50;;;;;;;4.83;4.07;;;19.40;99.90;;;;;;5072478;28;20922;-81
2022/08/29 04:16:21;;;;;;;3.90;3.60;;;19.30;99.90;;;;;;5071034;28;20183;-81
2022/08/29 04:18:47;;;;;;;4.20;3.80;;;19.30;99.90;;;;;;5072421;28;20151;-80
2022/08/29 04:21:14;;;;;;;4.20;3.90;;;19.20;99.90;;;;;;5071965;28;20251;-81
2022/08/29 04:23:40;;;;;;;4.50;3.70;;;19.20;99.90;;;;;;5072133;28;20186;-80
2022/08/29 04:26:13;;;;;;;4.27;3.80;;;19.20;99.90;;;;;;5072097;28;20167;-80
2022/08/29 04:28:39;;;;;;;5.43;4.27;;;19.20;99.90;;;;;;5071993;28;20186;-80
2022/08/29 04:31:11;;;;;;;4.30;3.93;;;19.20;99.90;;;;;;5072100;28;20229;-82
2022/08/29 04:33:37;;;;;;;4.03;3.63;;;19.20;99.90;;;;;;5071962;28;20159;-83
2022/08/29 04:36:05;;;;;;;5.50;4.37;;;19.10;99.90;;;;;;5071862;28;20178;-81
2022/08/29 04:38:31;;;;;;;4.10;3.87;;;19.10;99.90;;;;;;5071942;28;20176;-80
2022/08/29 04:40:57;;;;;;;4.10;3.63;;;19.20;99.90;;;;;;5071779;28;20171;-80
2022/08/29 04:43:23;;;;;;;4.17;3.73;;;19.20;99.90;;;;;;5070726;28;20182;-81
2022/08/29 04:45:55;;;;;;;3.73;3.50;;;19.20;99.90;;;;;;5072423;28;20614;-80
2022/08/29 04:48:21;;;;;;;3.83;3.60;;;19.10;99.90;;;;;;5072643;28;20248;-81
2022/08/29 04:50:55;;;;;;;3.87;3.57;;;19.10;99.90;;;;;;5072832;28;20172;-79
2022/08/29 04:53:23;;;;;;;3.80;3.50;;;19.10;99.90;;;;;;5073265;28;20253;-79
2022/08/29 04:56:02;;;;;;;5.20;3.93;;;19.10;99.90;;;;;;5080913;28;20159;-80
2022/08/29 04:58:29;;;;;;;4.03;3.63;;;19.20;99.90;;;;;;5086522;28;20215;-82
2022/08/29 05:00:55;;;;;;;5.67;3.50;;;19.20;99.90;;;;;;5076346;28;20254;-84
2022/08/29 05:03:22;;;;;;;3.63;3.40;;;19.20;99.90;;;;;;5073447;28;20179;-82
2022/08/29 05:05:55;;;;;;;4.23;3.83;;;19.10;99.90;;;;;;5070869;28;20178;-82
2022/08/29 05:08:22;;;;;;;5.47;3.40;;;19.10;99.90;;;;;;5071972;28;20171;-80
2022/08/29 05:10:48;;;;;;;3.63;3.17;;;19.10;99.90;;;;;;5071443;28;20177;-82
2022/08/29 05:13:14;;;;;;;5.67;3.43;;;19.10;99.90;;;;;;5069823;28;20183;-82
2022/08/29 05:15:40;;;;;;;3.20;3.00;;;19.10;99.90;;;;;;5071381;28;20248;-80
2022/08/29 05:18:06;;;;;;;4.67;3.70;;;19.10;99.90;;;;;;5071402;28;20171;-82
2022/08/29 05:20:32;;;;;;;5.37;3.67;;;19.10;99.90;;;;;;5069126;28;20179;-84
2022/08/29 05:22:58;;;;;;;3.57;3.27;;;19.10;99.90;;;;;;5071512;28;20203;-82
2022/08/29 05:25:24;;;;;;;5.33;3.20;;;19.10;99.90;;;;;;5070824;28;20516;-80
2022/08/29 05:27:51;;;;;;;3.87;3.40;;;19.20;99.90;;;;;;5071225;28;20190;-81
2022/08/29 05:30:17;;;;;;;5.10;3.73;;;19.10;99.90;;;;;;5072039;28;20168;-81
2022/08/29 05:32:43;;;;;;;6.37;3.60;;;19.10;99.90;;;;;;5070837;28;20718;-82
2022/08/29 05:35:11;;;;;;;3.53;2.87;;;19.10;99.90;;;;;;5069794;28;20254;-81
2022/08/29 05:37:37;;;;;;;6.13;3.60;;;19.00;99.90;;;;;;5071590;28;20563;-82
2022/08/29 05:40:04;;;;;;;3.33;3.03;;;19.10;99.90;;;;;;5069733;28;20210;-81
2022/08/29 05:42:30;;;;;;;4.40;3.07;;;19.00;99.90;;;;;;5071239;28;20210;-81
2022/08/29 05:44:57;;;;;;;5.07;3.20;;;19.10;99.90;;;;;;5071043;28;20189;-81
2022/08/29 05:47:22;;;;;;;5.00;3.10;;;19.10;99.90;;;;;;5069850;28;20235;-82
2022/08/29 05:49:49;;;;;;;6.80;3.40;;;19.10;99.90;;;;;;5070942;28;20168;-81
2022/08/29 05:52:18;;;;;;;5.07;2.90;;;19.10;99.90;;;;;;5069034;28;20178;-81
2022/08/29 05:54:44;;;;;;;6.00;3.00;;;19.10;99.90;;;;;;5070456;28;20179;-81
2022/08/29 05:57:12;;;;;;;4.73;3.07;;;19.10;99.90;;;;;;5070248;28;20229;-82
2022/08/29 05:59:38;;;;;;;5.00;3.00;;;19.20;99.90;;;;;;5070421;28;20191;-82
2022/08/29 06:02:06;;;;;;;3.10;2.90;;;19.30;99.90;;;;;;5069997;28;20261;-83
2022/08/29 06:04:31;;;;;;;3.73;2.93;;;19.30;99.90;;;;;;5066664;28;20638;-80
2022/08/29 06:06:57;;;;;;;4.30;3.10;;;19.20;99.90;;;;;;5059985;28;20179;-81
2022/08/29 06:09:23;;;;;;;5.60;3.00;;;19.30;99.90;;;;;;5057087;28;20191;-81
2022/08/29 06:11:52;;;;;;;4.23;2.90;;;19.40;99.90;;;;;;5071014;28;20210;-81
2022/08/29 06:14:18;;;;;;;3.20;2.90;;;19.50;99.90;;;;;;5069525;28;20171;-81
2022/08/29 06:16:44;;;;;;;2.93;2.73;;;19.40;99.90;;;;;;5070370;28;20366;-82
2022/08/29 06:19:10;;;;;;;3.70;3.00;;;19.50;99.90;;;;;;5069302;28;20183;-82
2022/08/29 06:21:37;;;;;;;2.80;2.70;;;19.50;99.90;;;;;;5070117;28;20303;-82
2022/08/29 06:24:04;;;;;;;3.13;2.70;;;19.60;99.90;;;;;;5068889;28;20186;-81
2022/08/29 06:26:30;;;;;;;6.43;2.77;;;19.70;99.90;;;;;;5070261;28;20167;-81
2022/08/29 06:28:56;;;;;;;3.53;2.80;;;19.90;99.90;;;;;;5070377;28;20254;-81
2022/08/29 06:31:26;;;;;;;2.90;2.70;;;20.00;99.90;;;;;;5069585;28;20182;-81
2022/08/29 06:33:55;;;;;;;2.80;2.60;;;20.10;99.90;;;;;;5071686;28;20183;-81
2022/08/29 06:36:24;;;;;;;4.23;2.60;;;20.20;99.90;;;;;;5081859;28;20396;-84
2022/08/29 06:38:50;;;;;;;4.47;2.53;;;20.20;99.90;;;;;;5076311;28;20220;-81
2022/08/29 06:41:17;;;;;;;3.23;2.90;;;20.30;99.90;;;;;;5074841;28;20277;-81
2022/08/29 06:43:43;;;;;;;3.17;2.77;;;20.30;99.90;;;;;;5072340;28;20270;-81
2022/08/29 06:46:28;;;;;;;5.33;2.67;;;20.30;99.90;;;;;;5070675;28;20285;-82
2022/08/29 06:48:56;;;;;;;3.63;2.60;;;20.40;99.90;;;;;;5070152;28;20254;-82
2022/08/29 06:51:22;;;;;;;2.87;2.70;;;20.50;99.90;;;;;;5070138;28;20510;-82
2022/08/29 06:53:49;;;;;;;6.10;3.17;;;20.60;99.90;;;;;;5070079;28;20171;-81
2022/08/29 06:56:15;;;;;;;4.43;2.80;;;20.70;99.90;;;;;;5069782;28;20175;-81
2022/08/29 06:58:41;;;;;;;4.40;2.90;;;;;;;;;;5069673;28;20229;-82
2022/08/29 07:01:09;;;;;;;3.10;2.90;;;20.90;99.90;;;;;;5069284;28;20194;-82
2022/08/29 07:03:35;;;;;;;4.20;3.03;;;21.00;99.90;;;;;;5069284;28;20274;-82
2022/08/29 07:06:02;;;;;;;4.87;3.10;;;21.10;99.90;;;;;;5069593;28;20175;-82
2022/08/29 07:08:28;;;;;;;4.20;3.20;;;21.30;99.90;;;;;;5069604;28;20672;-81
2022/08/29 07:10:53;;;;;;;7.27;3.73;;;21.30;99.90;;;;;;5068174;28;20218;-82
2022/08/29 07:13:19;;;;;;;5.17;3.20;;;21.40;99.90;;;;;;5068560;28;20203;-81
2022/08/29 07:15:45;;;;;;;3.20;3.00;;;21.50;99.90;;;;;;5069663;28;20253;-82
2022/08/29 07:18:13;;;;;;;3.77;3.47;;;21.60;99.90;;;;;;5069731;28;20536;-82
2022/08/29 07:20:39;;;;;;;4.70;3.80;;;21.70;99.90;;;;;;5069648;28;20232;-83
2022/08/29 07:23:06;;;;;;;4.43;4.03;;;21.80;99.90;;;;;;5069267;28;20554;-82
2022/08/29 07:25:32;;;;;;;5.47;4.10;;;21.90;99.90;;;;;;5069406;28;20176;-82
2022/08/29 07:27:58;;;;;;;4.10;3.80;;;21.90;99.90;;;;;;5069461;28;20171;-81
2022/08/29 07:30:24;;;;;;;4.40;4.10;;;22.00;99.90;;;;;;5069299;28;20202;-81
2022/08/29 07:32:50;;;;;;;4.87;4.13;;;22.00;99.90;;;;;;5069386;28;20182;-83
2022/08/29 07:35:17;;;;;;;4.20;3.97;;;21.90;99.90;;;;;;5069192;28;20167;-82
2022/08/29 07:37:43;;;;;;;4.38;4.18;;;22.00;99.90;;;;;;5069361;28;20167;-82
2022/08/29 07:40:16;;;;;;;4.83;4.23;;;22.00;99.90;;;;;;5069463;28;20175;-83
2022/08/29 07:42:42;;;;;;;4.30;3.90;;;22.10;99.90;;;;;;5069636;28;20199;-81
2022/08/29 07:45:10;;;;;;;4.53;3.90;;;22.20;99.90;;;;;;5073367;28;20168;-81
2022/08/29 07:47:37;;;;;;;4.23;3.97;;;22.20;99.90;;;;;;5073006;28;20171;-81
2022/08/29 07:50:06;;;;;;;4.03;3.83;;;22.30;99.90;;;;;;5072648;28;20171;-82
2022/08/29 07:52:32;;;;;;;3.90;3.70;;;22.30;99.90;;;;;;5071441;28;20179;-82
2022/08/29 07:54:57;;;;;;;4.55;4.22;;;22.30;99.90;;;;;;5072477;28;20168;-83
2022/08/29 07:57:23;;;;;;;3.87;3.67;;;22.30;99.90;;;;;;5071176;28;20242;-81
2022/08/29 07:59:49;;;;;;;3.63;3.43;;;22.40;99.90;;;;;;5072462;28;20171;-82
2022/08/29 08:02:15;;;;;;;4.28;3.65;;;22.40;99.90;;;;;;5072219;28;20225;-81
2022/08/29 08:04:42;;;;;;;3.55;3.35;;;22.40;99.90;;;;;;5072456;28;20269;-81
2022/08/29 08:07:09;;;;;;;4.90;3.60;;;22.40;99.90;;;;;;5072821;28;20183;-81
2022/08/29 08:09:36;;;;;;;3.77;3.47;;;22.50;99.90;;;;;;5070853;28;20187;-81
2022/08/29 08:12:04;;;;;;;5.13;3.90;;;22.50;99.90;;;;;;5072686;28;20209;-81
2022/08/29 08:14:31;;;;;;;5.37;3.17;;;22.60;99.90;;;;;;5086378;28;20235;-81
2022/08/29 08:16:57;;;;;;;3.20;2.97;;;22.50;99.90;;;;;;5086377;28;20172;-81
2022/08/29 08:19:24;;;;;;;3.65;3.55;;;22.50;99.90;;;;;;5073349;28;20176;-81
2022/08/29 08:21:50;;;;;;;3.05;2.95;;;22.50;99.90;;;;;;5072623;28;20587;-82
2022/08/29 08:24:18;;;;;;;3.30;3.20;;;22.60;99.90;;;;;;5072651;28;20174;-82
2022/08/29 08:26:44;;;;;;;5.15;3.55;;;22.80;99.90;;;;;;5071909;28;20179;-82
2022/08/29 08:29:11;;;;;;;4.38;3.47;;;23.00;99.90;;;;;;5071888;28;20565;-82
2022/08/29 08:31:48;;;;;;;3.88;3.67;;;23.10;99.90;;;;;;5071774;28;20159;-83
2022/08/29 08:34:15;;;;;;;3.33;3.15;;;23.30;99.90;;;;;;5071931;28;20619;-83
2022/08/29 08:36:43;;;;;;;3.88;3.55;;;23.40;99.90;;;;;;5072079;28;20178;-83
2022/08/29 08:39:10;;;;;;;3.55;3.30;;;23.40;99.90;;;;;;5071830;28;20652;-82
2022/08/29 08:41:53;;;;;;;3.70;3.50;;;23.50;99.90;;;;;;5071902;28;20964;-83
2022/08/29 08:44:25;;;;;;;3.40;3.20;;;23.50;99.90;;;;;;5072427;28;20175;-83
2022/08/29 08:46:56;;;;;;;4.03;3.45;;;23.60;99.90;;;;;;5070406;28;20167;-83
2022/08/29 08:49:43;;;;;;;3.20;3.08;;;23.60;99.90;;;;;;5071780;28;20524;-83
2022/08/29 08:52:29;;;;;;;3.38;3.17;;;23.60;99.90;;;;;;5071644;28;20159;-84
2022/08/29 08:55:00;;;;;;;3.60;3.40;;;23.60;99.90;;;;;;5069208;28;20203;-83
2022/08/29 08:57:38;;;;;;;3.53;3.42;;;23.60;99.90;;;;;;5071412;28;20611;-83
2022/08/29 09:00:06;;;;;;;3.28;3.08;;;23.60;99.90;;;;;;5071681;28;20170;-83
2022/08/29 09:02:56;;;;;;;3.38;3.17;;;23.60;99.90;;;;;;5070348;28;20218;-82
2022/08/29 09:05:43;;;;;;;3.22;3.00;;;23.60;99.90;;;;;;5071512;28;20216;-82
2022/08/29 09:08:18;;;;;;;3.00;2.80;;;23.70;99.90;;;;;;5071652;28;20171;-82
2022/08/29 09:10:58;;;;;;;3.42;3.22;;;23.70;99.90;;;;;;5071242;28;20170;-83
2022/08/29 09:13:45;;;;;;;3.22;3.03;;;23.80;99.90;;;;;;5071234;28;20808;-82
2022/08/29 09:16:30;;;;;;;3.30;3.00;;;23.90;99.90;;;;;;5071460;28;20587;-83
2022/08/29 09:19:02;;;;;;;3.55;3.25;;;24.00;99.90;;;;;;5071186;28;20683;-82
2022/08/29 09:21:32;;;;;;;2.28;2.20;;;24.00;99.90;;;;;;5070768;28;20278;-82
2022/08/29 09:23:58;;;;;;;6.07;2.78;;;24.10;99.90;;;;;;5070983;28;20171;-82
2022/08/29 09:26:27;;;;;;;3.22;2.90;;;24.10;99.90;;;;;;5070898;28;20199;-82
2022/08/29 09:28:53;;;;;;;2.60;2.40;;;24.20;99.90;;;;;;5071137;28;20222;-82
2022/08/29 09:31:33;;;;;;;3.72;2.58;;;24.30;99.90;;;;;;5069571;28;20175;-82
2022/08/29 09:34:06;;;;;;;2.60;2.20;;;24.40;99.90;;;;;;5069499;28;20221;-83
2022/08/29 09:36:40;;;;;;;3.55;2.50;;;24.40;99.90;;;;;;5070904;28;20254;-83
2022/08/29 09:39:22;;;;;;;2.80;2.70;;;24.60;99.90;;;;;;5070661;28;20179;-82
2022/08/29 09:41:53;;;;;;;2.55;2.40;;;24.70;99.90;;;;;;5069276;28;20199;-82
2022/08/29 09:44:34;;;;;;;2.30;2.20;;;25.00;99.90;;;;;;5069311;28;20262;-83
2022/08/29 09:47:24;;;;;;;2.22;2.10;;;25.20;99.90;;;;;;5070452;28;20158;-84
2022/08/29 09:50:10;;;;;;;2.45;1.90;;;25.30;99.90;;;;;;5070228;28;20271;-83
2022/08/29 09:52:40;;;;;;;2.22;2.13;;;25.40;99.90;;;;;;5069674;28;20181;-84
2022/08/29 09:55:32;;;;;;;2.17;2.08;;;25.50;99.90;;;;;;5072535;28;20171;-83
2022/08/29 09:58:00;;;;;;;2.20;2.10;;;25.60;99.90;;;;;;5080963;28;20234;-83
2022/08/29 10:00:34;;;;;;;2.30;2.20;;;25.70;99.90;;;;;;5072151;28;20225;-82
2022/08/29 10:03:02;;;;;;;2.65;2.55;;;25.90;99.90;;;;;;5070552;28;20199;-84
2022/08/29 10:05:49;;;;;;;2.28;2.17;;;26.00;99.90;;;;;;5070115;28;20167;-83
2022/08/29 10:08:29;;;;;;;2.50;2.40;;;26.10;99.90;;;;;;5070221;28;20202;-82
2022/08/29 10:10:58;;;;;;;3.60;2.20;;;26.20;99.90;;;;;;5070210;28;20166;-83
2022/08/29 10:13:42;;;;;;;2.13;2.03;;;26.20;99.90;;;;;;5070053;28;20171;-83
2022/08/29 10:16:26;;;;;;;2.40;2.30;;;26.10;99.90;;;;;;5069963;28;20155;-82
2022/08/29 10:19:01;;;;;;;3.45;2.22;;;26.00;99.90;;;;;;5069062;28;20223;-82
2022/08/29 10:22:15;;;;;;;2.80;2.70;;;25.80;99.90;;;;;;5070292;28;20194;-83
2022/08/29 10:25:03;;;;;;;3.17;2.47;;;25.50;99.90;;;;;;5069089;28;20187;-83
2022/08/29 10:27:40;;;;;;;2.60;2.40;;;25.40;99.90;;;;;;5070158;28;20162;-83
2022/08/29 10:30:20;;;;;;;2.90;2.60;;;25.20;99.90;;;;;;5070281;28;20280;-84
2022/08/29 10:33:00;;;;;;;2.92;2.60;;;25.20;99.90;;;;;;5069686;28;20653;-83
2022/08/29 10:35:57;;;;;;;3.03;2.83;;;25.00;99.90;;;;;;5068951;28;20211;-82
2022/08/29 10:38:54;;;;;;;3.60;3.30;;;24.70;99.90;;;;;;5070073;28;20163;-83
2022/08/29 10:41:22;;;;;;;3.40;3.10;;;;;;;;;;5069809;28;20183;-83
2022/08/29 10:44:09;;;;;;;6.05;3.75;;;23.90;99.90;;;;;;5070042;28;20175;-82
2022/08/29 10:46:54;;;;;;;3.60;3.40;;;23.40;99.90;;;;;;5068487;28;20175;-83
2022/08/29 10:49:29;;;;;;;4.60;3.70;;;22.80;99.90;;;;;;5069980;28;20163;-84
2022/08/29 10:52:21;;;;;;;4.10;3.70;;;22.70;99.90;;;;;;5069686;28;20177;-82
2022/08/29 10:55:21;;;;;;;4.97;3.87;;;22.40;99.90;;;;;;5069742;28;20430;-82
2022/08/29 10:57:50;;;;;;;3.40;3.20;;;22.30;99.90;;;;;;5069231;28;20226;-83
2022/08/29 11:00:23;;;;;;;3.70;3.50;;;22.10;99.90;;;;;;5068249;28;20668;-82
2022/08/29 11:03:05;;;;;;;3.30;3.10;;;22.00;99.90;;;;;;5069530;28;20206;-83
2022/08/29 11:05:38;;;;;;;3.40;3.20;;;21.90;99.90;;;;;;5069579;28;20504;-83
2022/08/29 11:08:10;;;;;;;3.67;3.17;;;21.90;99.90;;;;;;5069697;28;20164;-83
2022/08/29 11:10:40;;;;;;;3.20;2.90;;;21.80;99.90;;;;;;5068224;28;20182;-84
2022/08/29 11:13:18;;;;;;;2.80;2.60;;;21.80;99.90;;;;;;5069488;28;20170;-84
2022/08/29 11:15:54;;;;;;;7.87;3.20;;;21.70;99.90;;;;;;5068003;28;20819;-83
2022/08/29 11:18:49;;;;;;;3.70;3.07;;;21.70;99.90;;;;;;5070275;28;20186;-83
2022/08/29 11:21:33;;;;;;;3.33;3.03;;;21.60;99.90;;;;;;5070741;28;20877;-83
2022/08/29 11:24:02;;;;;;;5.07;3.60;;;21.60;99.90;;;;;;5072728;28;20233;-83
2022/08/29 11:26:51;;;;;;;4.80;3.27;;;21.50;99.90;;;;;;5073101;28;20262;-82
2022/08/29 11:29:36;;;;;;;3.73;3.43;;;21.60;99.90;;;;;;5073003;28;20245;-82
2022/08/29 11:32:15;;;;;;;4.57;3.73;;;21.60;99.90;;;;;;5072294;28;20182;-82
2022/08/29 11:35:00;;;;;;;6.63;3.87;;;21.60;99.90;;;;;;5082181;28;20183;-82
2022/08/29 11:37:37;;;;;;;5.37;3.70;;;21.60;99.90;;;;;;5089711;28;20175;-81
2022/08/29 11:40:12;;;;;;;5.00;4.00;;;21.60;99.90;;;;;;5081604;28;20186;-82
2022/08/29 11:42:41;;;;;;;4.40;4.00;;;21.60;99.90;;;;;;5072337;28;20240;-82
2022/08/29 11:45:13;;;;;;;4.33;3.70;;;21.70;99.90;;;;;;5073413;28;20186;-82
2022/08/29 11:47:58;;;;;;;5.60;4.27;;;21.60;99.90;;;;;;5071906;28;20203;-83
2022/08/29 11:50:34;;;;;;;4.37;3.50;;;21.60;99.90;;;;;;5073058;28;20194;-84
2022/08/29 11:53:21;;;;;;;4.10;3.80;;;21.70;99.90;;;;;;5073180;28;20221;-83
2022/08/29 11:56:11;;;;;;;3.70;3.50;;;21.60;99.90;;;;;;5072219;28;20183;-82
2022/08/29 11:58:41;;;;;;;4.13;3.87;;;21.70;99.90;;;;;;5072017;28;20245;-82
2022/08/29 12:01:33;;;;;;;3.83;3.57;;;21.80;99.90;;;;;;5071943;28;20670;-82
2022/08/29 12:04:00;;;;;;;3.87;3.50;;;21.80;99.90;;;;;;5072515;28;20256;-82
2022/08/29 12:06:36;;;;;;;4.73;3.93;;;21.80;99.90;;;;;;5072670;28;20172;-82
2022/08/29 12:09:07;;;;;;;5.47;3.93;;;21.80;99.90;;;;;;5072650;28;20155;-82
2022/08/29 12:11:57;;;;;;;3.80;3.60;;;21.90;99.90;;;;;;5072685;28;20541;-82
2022/08/29 12:14:34;;;;;;;4.60;4.20;;;22.00;99.90;;;;;;5072655;28;20634;-83
2022/08/29 12:17:02;;;;;;;5.13;4.03;;;22.00;99.90;;;;;;5071088;28;20179;-82
2022/08/29 12:19:47;;;;;;;4.17;3.77;;;22.10;99.90;;;;;;5072434;28;20171;-82
2022/08/29 12:22:48;;;;;;;4.60;4.20;;;22.10;99.90;;;;;;5072618;28;20206;-82
2022/08/29 12:25:26;;;;;;;5.37;4.97;;;22.10;99.90;;;;;;5069665;28;20186;-82
2022/08/29 12:28:06;;;;;;;8.97;4.80;;;22.20;99.90;;;;;;5071457;28;20178;-83
2022/08/29 12:30:39;;;;;;;4.70;4.23;;;22.30;99.90;;;;;;5072478;28;20162;-82
2022/08/29 12:33:42;;;;;;;4.73;4.23;;;22.40;99.90;;;;;;5072492;28;20171;-83
2022/08/29 12:36:18;;;;;;;9.07;4.07;;;22.40;99.90;;;;;;5072279;28;20546;-82
2022/08/29 12:39:21;;;;;;;4.37;3.97;;;22.50;99.90;;;;;;5072239;28;20165;-83
2022/08/29 12:42:08;;;;;;;5.20;4.90;;;22.50;99.90;;;;;;5072302;28;20618;-82
2022/08/29 12:44:46;;;;;;;10.63;4.50;;;22.50;99.90;;;;;;5072198;28;20178;-82
2022/08/29 12:47:24;;;;;;;4.13;3.67;;;22.50;99.90;;;;;;5072136;28;20625;-81
2022/08/29 12:49:54;;;;;;;4.33;4.03;;;22.50;99.90;;;;;;5070495;28;20175;-81
2022/08/29 12:52:24;;;;;;;3.97;3.67;;;22.50;99.90;;;;;;5072415;28;20213;-82
2022/08/29 12:54:50;;;;;;;4.43;4.13;;;22.50;99.90;;;;;;5073035;28;20169;-81
2022/08/29 12:57:20;;;;;;;4.83;3.60;;;22.40;99.90;;;;;;5072519;28;20230;-82
2022/08/29 12:59:48;;;;;;;4.90;4.40;;;22.40;99.90;;;;;;5071469;28;20233;-81
2022/08/29 13:02:24;;;;;;;4.25;3.92;;;22.40;99.90;;;;;;5072546;28;20563;-83
2022/08/29 13:04:50;;;;;;;4.20;3.83;;;22.40;99.90;;;;;;5071665;28;20170;-81